sensor_id;sensor_type;location;lat;lon;timestamp;pressure;altitude;pressure_sealevel;temperature;humidity
50682;BME280;36779;52.168;20.878;2023-07-09T00:02:24;100870.14;;;17.34;43.39
50682;BME280;36779;52.168;20.878;2023-07-09T00:04:53;100871.71;;;17.39;43.52
50682;BME280;36779;52.168;20.878;2023-07-09T00:07:25;100868.45;;;17.42;43.53
50682;BME280;36779;52.168;20.878;2023-07-09T00:09:56;100864.91;;;17.44;43.60
50682;BME280;36779;52.168;20.878;2023-07-09T00:12:25;100875.96;;;17.46;43.80
50682;BME280;36779;52.168;20.878;2023-07-09T00:14:54;100872.38;;;17.49;43.72
50682;BME280;36779;52.168;20.878;2023-07-09T00:17:27;100871.69;;;17.52;43.78
50682;BME280;36779;52.168;20.878;2023-07-09T00:19:57;100869.47;;;17.54;43.84
50682;BME280;36779;52.168;20.878;2023-07-09T00:22:26;100870.34;;;17.54;43.84
50682;BME280;36779;52.168;20.878;2023-07-09T00:24:57;100868.30;;;17.50;43.93
50682;BME280;36779;52.168;20.878;2023-07-09T00:27:29;100869.36;;;17.47;43.84
50682;BME280;36779;52.168;20.878;2023-07-09T00:29:58;100871.09;;;17.44;43.97
50682;BME280;36779;52.168;20.878;2023-07-09T00:32:29;100877.83;;;17.40;44.04
50682;BME280;36779;52.168;20.878;2023-07-09T00:34:58;100879.38;;;17.38;44.04
50682;BME280;36779;52.168;20.878;2023-07-09T00:37:28;100886.95;;;17.37;44.29
50682;BME280;36779;52.168;20.878;2023-07-09T00:39:57;100891.91;;;17.35;44.16
50682;BME280;36779;52.168;20.878;2023-07-09T00:42:26;100888.34;;;17.34;44.29
50682;BME280;36779;52.168;20.878;2023-07-09T00:44:55;100887.99;;;17.32;44.41
50682;BME280;36779;52.168;20.878;2023-07-09T00:47:34;100890.48;;;17.28;44.37
50682;BME280;36779;52.168;20.878;2023-07-09T00:50:26;100888.14;;;17.25;44.55
50682;BME280;36779;52.168;20.878;2023-07-09T00:53:01;100885.55;;;17.23;44.54
50682;BME280;36779;52.168;20.878;2023-07-09T00:55:41;100884.25;;;17.21;44.58
50682;BME280;36779;52.168;20.878;2023-07-09T00:58:13;100879.42;;;17.16;44.76
50682;BME280;36779;52.168;20.878;2023-07-09T01:00:47;100877.67;;;17.10;44.64
50682;BME280;36779;52.168;20.878;2023-07-09T01:03:29;100876.55;;;17.05;44.64
50682;BME280;36779;52.168;20.878;2023-07-09T01:06:02;100879.23;;;16.99;44.81
50682;BME280;36779;52.168;20.878;2023-07-09T01:08:36;100881.39;;;16.95;44.89
50682;BME280;36779;52.168;20.878;2023-07-09T01:11:16;100877.05;;;16.92;44.98
50682;BME280;36779;52.168;20.878;2023-07-09T01:13:53;100879.72;;;16.89;45.04
50682;BME280;36779;52.168;20.878;2023-07-09T01:16:27;100878.66;;;16.86;45.15
50682;BME280;36779;52.168;20.878;2023-07-09T01:19:01;100878.17;;;16.85;45.05
50682;BME280;36779;52.168;20.878;2023-07-09T01:21:36;100882.20;;;16.81;45.11
50682;BME280;36779;52.168;20.878;2023-07-09T01:24:14;100880.64;;;16.79;45.27
50682;BME280;36779;52.168;20.878;2023-07-09T01:26:43;100883.46;;;16.79;45.46
50682;BME280;36779;52.168;20.878;2023-07-09T01:29:12;100885.26;;;16.81;45.56
50682;BME280;36779;52.168;20.878;2023-07-09T01:31:41;100888.80;;;16.84;45.50
50682;BME280;36779;52.168;20.878;2023-07-09T01:34:10;100887.80;;;16.87;45.71
50682;BME280;36779;52.168;20.878;2023-07-09T01:36:41;100881.60;;;16.87;45.49
50682;BME280;36779;52.168;20.878;2023-07-09T01:39:13;100884.21;;;16.88;45.82
50682;BME280;36779;52.168;20.878;2023-07-09T01:41:44;100884.95;;;16.88;45.76
50682;BME280;36779;52.168;20.878;2023-07-09T01:44:13;100885.74;;;16.87;45.92
50682;BME280;36779;52.168;20.878;2023-07-09T01:46:43;100885.62;;;16.88;45.87
50682;BME280;36779;52.168;20.878;2023-07-09T01:49:16;100888.60;;;16.87;45.84
50682;BME280;36779;52.168;20.878;2023-07-09T01:51:45;100886.63;;;16.84;45.79
50682;BME280;36779;52.168;20.878;2023-07-09T01:54:15;100894.36;;;16.83;45.94
50682;BME280;36779;52.168;20.878;2023-07-09T01:56:44;100892.95;;;16.83;45.93
50682;BME280;36779;52.168;20.878;2023-07-09T01:59:13;100893.83;;;16.83;46.02
50682;BME280;36779;52.168;20.878;2023-07-09T02:01:45;100896.05;;;16.82;46.06
50682;BME280;36779;52.168;20.878;2023-07-09T02:04:14;100894.06;;;16.83;46.16
50682;BME280;36779;52.168;20.878;2023-07-09T02:06:43;100894.23;;;16.83;46.17
50682;BME280;36779;52.168;20.878;2023-07-09T02:09:12;100894.73;;;16.83;46.31
50682;BME280;36779;52.168;20.878;2023-07-09T02:11:41;100894.81;;;16.84;46.38
50682;BME280;36779;52.168;20.878;2023-07-09T02:14:09;100891.63;;;16.85;46.31
50682;BME280;36779;52.168;20.878;2023-07-09T02:16:43;100892.95;;;16.85;46.32
50682;BME280;36779;52.168;20.878;2023-07-09T02:19:13;100897.10;;;16.85;46.36
50682;BME280;36779;52.168;20.878;2023-07-09T02:21:41;100896.81;;;16.83;46.25
50682;BME280;36779;52.168;20.878;2023-07-09T02:24:10;100895.64;;;16.83;46.51
50682;BME280;36779;52.168;20.878;2023-07-09T02:26:39;100894.17;;;16.82;46.31
50682;BME280;36779;52.168;20.878;2023-07-09T02:29:09;100894.88;;;16.79;46.46
50682;BME280;36779;52.168;20.878;2023-07-09T02:31:38;100895.40;;;16.76;46.56
50682;BME280;36779;52.168;20.878;2023-07-09T02:34:08;100895.09;;;16.76;46.64
50682;BME280;36779;52.168;20.878;2023-07-09T02:36:37;100898.60;;;16.73;46.65
50682;BME280;36779;52.168;20.878;2023-07-09T02:39:14;100899.93;;;16.69;46.39
50682;BME280;36779;52.168;20.878;2023-07-09T02:41:43;100898.42;;;16.66;46.59
50682;BME280;36779;52.168;20.878;2023-07-09T02:44:12;100896.92;;;16.63;46.58
50682;BME280;36779;52.168;20.878;2023-07-09T02:46:41;100899.73;;;16.61;46.62
50682;BME280;36779;52.168;20.878;2023-07-09T02:49:11;100911.23;;;16.59;46.74
50682;BME280;36779;52.168;20.878;2023-07-09T02:51:41;100907.48;;;16.58;46.80
50682;BME280;36779;52.168;20.878;2023-07-09T02:54:10;100902.77;;;16.57;46.75
50682;BME280;36779;52.168;20.878;2023-07-09T02:56:39;100908.45;;;16.54;46.73
50682;BME280;36779;52.168;20.878;2023-07-09T02:59:07;100905.88;;;16.52;46.90
50682;BME280;36779;52.168;20.878;2023-07-09T03:01:39;100905.71;;;16.52;47.12
50682;BME280;36779;52.168;20.878;2023-07-09T03:04:08;100910.23;;;16.52;47.26
50682;BME280;36779;52.168;20.878;2023-07-09T03:06:37;100913.25;;;16.52;47.10
50682;BME280;36779;52.168;20.878;2023-07-09T03:09:12;100906.98;;;16.53;47.12
50682;BME280;36779;52.168;20.878;2023-07-09T03:11:41;100905.20;;;16.56;47.29
50682;BME280;36779;52.168;20.878;2023-07-09T03:14:09;100908.83;;;16.59;47.26
50682;BME280;36779;52.168;20.878;2023-07-09T03:16:39;100907.86;;;16.61;47.46
50682;BME280;36779;52.168;20.878;2023-07-09T03:19:08;100909.41;;;16.62;47.58
50682;BME280;36779;52.168;20.878;2023-07-09T03:21:37;100911.02;;;16.61;47.60
50682;BME280;36779;52.168;20.878;2023-07-09T03:24:08;100915.45;;;16.75;47.88
50682;BME280;36779;52.168;20.878;2023-07-09T03:26:37;100911.59;;;17.07;47.96
50682;BME280;36779;52.168;20.878;2023-07-09T03:29:07;100917.02;;;17.17;47.86
50682;BME280;36779;52.168;20.878;2023-07-09T03:31:36;100921.56;;;17.18;47.72
50682;BME280;36779;52.168;20.878;2023-07-09T03:34:07;100922.67;;;17.18;47.74
50682;BME280;36779;52.168;20.878;2023-07-09T03:36:36;100922.73;;;17.16;47.66
50682;BME280;36779;52.168;20.878;2023-07-09T03:39:06;100928.04;;;17.14;47.72
50682;BME280;36779;52.168;20.878;2023-07-09T03:41:35;100931.08;;;17.12;47.78
50682;BME280;36779;52.168;20.878;2023-07-09T03:44:06;100933.13;;;17.10;47.89
50682;BME280;36779;52.168;20.878;2023-07-09T03:46:35;100937.63;;;17.09;47.79
50682;BME280;36779;52.168;20.878;2023-07-09T03:49:06;100937.49;;;17.08;47.87
50682;BME280;36779;52.168;20.878;2023-07-09T03:51:34;100935.13;;;17.09;47.91
50682;BME280;36779;52.168;20.878;2023-07-09T03:54:04;100934.02;;;17.07;48.03
50682;BME280;36779;52.168;20.878;2023-07-09T03:56:34;100937.13;;;17.09;47.95
50682;BME280;36779;52.168;20.878;2023-07-09T03:59:06;100938.19;;;17.10;48.15
50682;BME280;36779;52.168;20.878;2023-07-09T04:01:34;100937.49;;;17.11;48.13
50682;BME280;36779;52.168;20.878;2023-07-09T04:04:04;100935.02;;;17.14;48.17
50682;BME280;36779;52.168;20.878;2023-07-09T04:06:33;100939.41;;;17.16;48.26
50682;BME280;36779;52.168;20.878;2023-07-09T04:09:02;100946.08;;;17.20;48.38
50682;BME280;36779;52.168;20.878;2023-07-09T04:11:34;100944.13;;;17.24;48.48
50682;BME280;36779;52.168;20.878;2023-07-09T04:14:07;100944.16;;;17.41;48.78
50682;BME280;36779;52.168;20.878;2023-07-09T04:16:36;100940.83;;;18.08;49.48
50682;BME280;36779;52.168;20.878;2023-07-09T04:19:05;100943.81;;;19.06;49.77
50682;BME280;36779;52.168;20.878;2023-07-09T04:21:34;100942.17;;;19.75;49.36
50682;BME280;36779;52.168;20.878;2023-07-09T04:24:05;100942.19;;;19.85;48.58
50682;BME280;36779;52.168;20.878;2023-07-09T04:26:34;100938.15;;;19.81;48.18
50682;BME280;36779;52.168;20.878;2023-07-09T04:29:08;100938.90;;;19.77;47.88
50682;BME280;36779;52.168;20.878;2023-07-09T04:31:40;100944.59;;;19.74;47.75
50682;BME280;36779;52.168;20.878;2023-07-09T04:34:10;100948.89;;;19.75;47.69
50682;BME280;36779;52.168;20.878;2023-07-09T04:36:38;100948.42;;;19.69;47.67
50682;BME280;36779;52.168;20.878;2023-07-09T04:39:07;100947.27;;;19.64;47.67
50682;BME280;36779;52.168;20.878;2023-07-09T04:41:38;100945.61;;;19.61;47.65
50682;BME280;36779;52.168;20.878;2023-07-09T04:44:07;100947.74;;;19.63;47.71
50682;BME280;36779;52.168;20.878;2023-07-09T04:46:36;100947.95;;;20.20;48.40
50682;BME280;36779;52.168;20.878;2023-07-09T04:49:08;100950.65;;;20.80;48.54
50682;BME280;36779;52.168;20.878;2023-07-09T04:51:40;100955.83;;;21.54;48.61
50682;BME280;36779;52.168;20.878;2023-07-09T04:54:09;100958.67;;;22.33;48.46
50682;BME280;36779;52.168;20.878;2023-07-09T04:56:38;100956.30;;;23.13;48.32
50682;BME280;36779;52.168;20.878;2023-07-09T04:59:07;100956.61;;;23.99;48.13
50682;BME280;36779;52.168;20.878;2023-07-09T05:01:35;100955.93;;;24.76;47.46
50682;BME280;36779;52.168;20.878;2023-07-09T05:04:09;100959.46;;;25.41;46.82
50682;BME280;36779;52.168;20.878;2023-07-09T05:06:38;100957.27;;;25.93;46.34
50682;BME280;36779;52.168;20.878;2023-07-09T05:09:07;100951.39;;;26.49;45.80
50682;BME280;36779;52.168;20.878;2023-07-09T05:11:39;100951.05;;;27.04;45.35
50682;BME280;36779;52.168;20.878;2023-07-09T05:14:08;100952.62;;;27.65;44.96
50682;BME280;36779;52.168;20.878;2023-07-09T05:16:38;100953.70;;;28.06;44.14
50682;BME280;36779;52.168;20.878;2023-07-09T05:19:08;100953.27;;;28.26;43.54
50682;BME280;36779;52.168;20.878;2023-07-09T05:21:37;100952.52;;;28.62;43.14
50682;BME280;36779;52.168;20.878;2023-07-09T05:24:07;100955.42;;;28.94;42.66
50682;BME280;36779;52.168;20.878;2023-07-09T05:26:36;100960.71;;;29.37;42.46
50682;BME280;36779;52.168;20.878;2023-07-09T05:29:08;100963.31;;;29.83;42.15
50682;BME280;36779;52.168;20.878;2023-07-09T05:31:37;100966.55;;;30.22;41.55
50682;BME280;36779;52.168;20.878;2023-07-09T05:34:07;100968.90;;;30.48;41.13
50682;BME280;36779;52.168;20.878;2023-07-09T05:36:35;100965.73;;;30.56;40.35
50682;BME280;36779;52.168;20.878;2023-07-09T05:39:06;100964.32;;;30.50;39.88
50682;BME280;36779;52.168;20.878;2023-07-09T05:41:37;100969.25;;;30.66;39.68
50682;BME280;36779;52.168;20.878;2023-07-09T05:44:06;100969.09;;;30.81;39.47
50682;BME280;36779;52.168;20.878;2023-07-09T05:46:36;100963.92;;;31.03;39.21
50682;BME280;36779;52.168;20.878;2023-07-09T05:49:08;100965.14;;;31.16;38.76
50682;BME280;36779;52.168;20.878;2023-07-09T05:51:39;100964.22;;;31.15;38.40
50682;BME280;36779;52.168;20.878;2023-07-09T05:54:10;100969.44;;;31.27;38.21
50682;BME280;36779;52.168;20.878;2023-07-09T05:56:39;100970.23;;;31.46;38.05
50682;BME280;36779;52.168;20.878;2023-07-09T05:59:07;100971.27;;;31.66;37.82
50682;BME280;36779;52.168;20.878;2023-07-09T06:01:41;100972.77;;;32.02;37.81
50682;BME280;36779;52.168;20.878;2023-07-09T06:04:09;100980.45;;;32.12;37.13
50682;BME280;36779;52.168;20.878;2023-07-09T06:06:40;100980.14;;;31.99;36.83
50682;BME280;36779;52.168;20.878;2023-07-09T06:09:10;100981.57;;;32.01;36.52
50682;BME280;36779;52.168;20.878;2023-07-09T06:11:39;100981.15;;;31.93;36.35
50682;BME280;36779;52.168;20.878;2023-07-09T06:14:07;100980.33;;;31.84;36.06
50682;BME280;36779;52.168;20.878;2023-07-09T06:16:36;100981.30;;;31.92;36.28
50682;BME280;36779;52.168;20.878;2023-07-09T06:19:08;100980.77;;;32.03;36.15
50682;BME280;36779;52.168;20.878;2023-07-09T06:21:36;100975.78;;;32.12;35.81
50682;BME280;36779;52.168;20.878;2023-07-09T06:24:10;100975.54;;;31.78;35.30
50682;BME280;36779;52.168;20.878;2023-07-09T06:26:39;100985.07;;;31.17;34.96
50682;BME280;36779;52.168;20.878;2023-07-09T06:29:11;100985.61;;;30.50;34.90
50682;BME280;36779;52.168;20.878;2023-07-09T06:31:40;100984.56;;;29.74;34.72
50682;BME280;36779;52.168;20.878;2023-07-09T06:34:10;100984.58;;;29.02;34.79
50682;BME280;36779;52.168;20.878;2023-07-09T06:36:39;100988.86;;;28.39;35.10
50682;BME280;36779;52.168;20.878;2023-07-09T06:39:11;100988.05;;;27.76;35.10
50682;BME280;36779;52.168;20.878;2023-07-09T06:41:40;100987.09;;;27.13;35.31
50682;BME280;36779;52.168;20.878;2023-07-09T06:44:10;100991.16;;;26.62;35.47
50682;BME280;36779;52.168;20.878;2023-07-09T06:46:39;100994.47;;;26.18;35.62
50682;BME280;36779;52.168;20.878;2023-07-09T06:49:07;100994.67;;;25.82;35.88
50682;BME280;36779;52.168;20.878;2023-07-09T06:51:36;101000.75;;;25.54;36.07
50682;BME280;36779;52.168;20.878;2023-07-09T06:54:07;101002.18;;;25.27;36.15
50682;BME280;36779;52.168;20.878;2023-07-09T06:56:36;100997.69;;;25.02;36.33
50682;BME280;36779;52.168;20.878;2023-07-09T06:59:06;100996.63;;;24.84;36.56
50682;BME280;36779;52.168;20.878;2023-07-09T07:01:35;100999.62;;;24.74;36.78
50682;BME280;36779;52.168;20.878;2023-07-09T07:04:06;101001.58;;;24.62;36.83
50682;BME280;36779;52.168;20.878;2023-07-09T07:06:35;101003.77;;;24.53;37.01
50682;BME280;36779;52.168;20.878;2023-07-09T07:09:04;101003.52;;;24.44;37.09
50682;BME280;36779;52.168;20.878;2023-07-09T07:11:34;101010.11;;;24.35;37.15
50682;BME280;36779;52.168;20.878;2023-07-09T07:14:02;101013.77;;;24.33;37.28
50682;BME280;36779;52.168;20.878;2023-07-09T07:16:34;101012.80;;;24.36;37.48
50682;BME280;36779;52.168;20.878;2023-07-09T07:19:04;101012.56;;;24.42;37.52
50682;BME280;36779;52.168;20.878;2023-07-09T07:21:34;101013.88;;;24.50;37.64
50682;BME280;36779;52.168;20.878;2023-07-09T07:24:03;101013.75;;;24.55;37.66
50682;BME280;36779;52.168;20.878;2023-07-09T07:26:34;101015.30;;;24.57;37.69
50682;BME280;36779;52.168;20.878;2023-07-09T07:29:03;101009.21;;;24.53;37.68
50682;BME280;36779;52.168;20.878;2023-07-09T07:31:33;101008.55;;;24.40;37.71
50682;BME280;36779;52.168;20.878;2023-07-09T07:34:01;101006.02;;;24.35;37.80
50682;BME280;36779;52.168;20.878;2023-07-09T07:36:33;101003.90;;;24.33;37.96
50682;BME280;36779;52.168;20.878;2023-07-09T07:39:08;100999.23;;;24.29;37.95
50682;BME280;36779;52.168;20.878;2023-07-09T07:41:37;100995.80;;;24.29;38.10
50682;BME280;36779;52.168;20.878;2023-07-09T07:44:08;100992.54;;;24.20;38.06
50682;BME280;36779;52.168;20.878;2023-07-09T07:46:37;100991.40;;;24.17;38.11
50682;BME280;36779;52.168;20.878;2023-07-09T07:49:10;100990.73;;;24.16;38.16
50682;BME280;36779;52.168;20.878;2023-07-09T07:51:39;100988.80;;;24.11;38.25
50682;BME280;36779;52.168;20.878;2023-07-09T07:54:07;100988.83;;;24.10;38.24
50682;BME280;36779;52.168;20.878;2023-07-09T07:56:38;100987.92;;;24.08;38.36
50682;BME280;36779;52.168;20.878;2023-07-09T07:59:08;100987.49;;;24.15;38.54
50682;BME280;36779;52.168;20.878;2023-07-09T08:01:41;100985.77;;;24.16;38.52
50682;BME280;36779;52.168;20.878;2023-07-09T08:04:10;100982.69;;;24.17;38.54
50682;BME280;36779;52.168;20.878;2023-07-09T08:06:39;100985.30;;;24.21;38.60
50682;BME280;36779;52.168;20.878;2023-07-09T08:09:08;100990.07;;;24.24;38.69
50682;BME280;36779;52.168;20.878;2023-07-09T08:11:40;100992.69;;;24.24;38.63
50682;BME280;36779;52.168;20.878;2023-07-09T08:14:09;100991.70;;;24.29;38.69
50682;BME280;36779;52.168;20.878;2023-07-09T08:16:39;100990.64;;;24.32;38.67
50682;BME280;36779;52.168;20.878;2023-07-09T08:19:08;100986.84;;;24.33;38.67
50682;BME280;36779;52.168;20.878;2023-07-09T08:21:37;100984.84;;;24.28;38.57
50682;BME280;36779;52.168;20.878;2023-07-09T08:24:08;100982.81;;;24.29;38.77
50682;BME280;36779;52.168;20.878;2023-07-09T08:26:36;100982.98;;;24.26;38.62
50682;BME280;36779;52.168;20.878;2023-07-09T08:29:08;100986.34;;;24.28;38.66
50682;BME280;36779;52.168;20.878;2023-07-09T08:31:39;100985.70;;;24.39;38.92
50682;BME280;36779;52.168;20.878;2023-07-09T08:34:10;100992.17;;;24.56;38.83
50682;BME280;36779;52.168;20.878;2023-07-09T08:36:39;100992.65;;;24.63;38.68
50682;BME280;36779;52.168;20.878;2023-07-09T08:39:07;100988.45;;;24.68;38.63
50682;BME280;36779;52.168;20.878;2023-07-09T08:41:45;100986.00;;;24.74;38.60
50682;BME280;36779;52.168;20.878;2023-07-09T08:44:28;100985.28;;;24.77;38.42
50682;BME280;36779;52.168;20.878;2023-07-09T08:47:16;100989.02;;;24.79;38.30
50682;BME280;36779;52.168;20.878;2023-07-09T08:49:50;100984.77;;;24.86;38.29
50682;BME280;36779;52.168;20.878;2023-07-09T08:52:26;100985.63;;;24.90;38.07
50682;BME280;36779;52.168;20.878;2023-07-09T08:54:59;100988.98;;;25.04;38.20
50682;BME280;36779;52.168;20.878;2023-07-09T08:57:34;100984.24;;;25.17;37.88
50682;BME280;36779;52.168;20.878;2023-07-09T09:00:12;100981.41;;;25.23;37.81
50682;BME280;36779;52.168;20.878;2023-07-09T09:02:50;100979.57;;;25.45;37.85
50682;BME280;36779;52.168;20.878;2023-07-09T09:05:22;100976.77;;;25.73;37.83
50682;BME280;36779;52.168;20.878;2023-07-09T09:07:56;100980.04;;;25.98;37.62
50682;BME280;36779;52.168;20.878;2023-07-09T09:10:33;100978.76;;;26.32;37.66
50682;BME280;36779;52.168;20.878;2023-07-09T09:13:08;100973.88;;;26.62;37.42
50682;BME280;36779;52.168;20.878;2023-07-09T09:15:40;100971.63;;;26.94;37.26
50682;BME280;36779;52.168;20.878;2023-07-09T09:18:22;100973.55;;;27.20;36.95
50682;BME280;36779;52.168;20.878;2023-07-09T09:20:57;100974.70;;;27.39;36.70
50682;BME280;36779;52.168;20.878;2023-07-09T09:23:36;100974.48;;;27.60;36.66
50682;BME280;36779;52.168;20.878;2023-07-09T09:26:16;100978.48;;;27.93;36.46
50682;BME280;36779;52.168;20.878;2023-07-09T09:28:46;100973.92;;;28.15;36.23
50682;BME280;36779;52.168;20.878;2023-07-09T09:31:15;100966.17;;;28.38;36.15
50682;BME280;36779;52.168;20.878;2023-07-09T09:33:47;100968.41;;;28.63;35.85
50682;BME280;36779;52.168;20.878;2023-07-09T09:36:19;100964.60;;;28.84;35.84
50682;BME280;36779;52.168;20.878;2023-07-09T09:38:48;100967.11;;;29.09;35.58
50682;BME280;36779;52.168;20.878;2023-07-09T09:41:24;100971.36;;;29.27;35.30
50682;BME280;36779;52.168;20.878;2023-07-09T09:43:56;100973.70;;;29.58;35.39
50682;BME280;36779;52.168;20.878;2023-07-09T09:46:27;100971.64;;;29.97;35.23
50682;BME280;36779;52.168;20.878;2023-07-09T09:49:00;100969.41;;;30.23;34.93
50682;BME280;36779;52.168;20.878;2023-07-09T09:51:33;100968.81;;;30.43;34.89
50682;BME280;36779;52.168;20.878;2023-07-09T09:54:02;100970.45;;;30.75;34.65
50682;BME280;36779;52.168;20.878;2023-07-09T09:56:43;100968.05;;;30.80;34.19
50682;BME280;36779;52.168;20.878;2023-07-09T09:59:18;100971.00;;;30.86;33.99
50682;BME280;36779;52.168;20.878;2023-07-09T10:02:16;100975.16;;;30.89;33.78
50682;BME280;36779;52.168;20.878;2023-07-09T10:04:47;100970.23;;;30.87;33.46
50682;BME280;36779;52.168;20.878;2023-07-09T10:07:22;100964.00;;;31.05;33.47
50682;BME280;36779;52.168;20.878;2023-07-09T10:09:54;100968.43;;;31.29;33.33
50682;BME280;36779;52.168;20.878;2023-07-09T10:12:34;100967.47;;;31.32;32.94
50682;BME280;36779;52.168;20.878;2023-07-09T10:15:17;100968.05;;;31.25;32.54
50682;BME280;36779;52.168;20.878;2023-07-09T10:17:55;100962.92;;;31.28;32.67
50682;BME280;36779;52.168;20.878;2023-07-09T10:20:34;100966.55;;;31.53;32.58
50682;BME280;36779;52.168;20.878;2023-07-09T10:23:14;100967.73;;;31.62;32.33
50682;BME280;36779;52.168;20.878;2023-07-09T10:25:52;100965.70;;;31.62;31.98
50682;BME280;36779;52.168;20.878;2023-07-09T10:28:35;100959.71;;;31.78;32.09
50682;BME280;36779;52.168;20.878;2023-07-09T10:31:15;100958.23;;;31.84;31.80
50682;BME280;36779;52.168;20.878;2023-07-09T10:33:57;100958.94;;;31.83;31.67
50682;BME280;36779;52.168;20.878;2023-07-09T10:36:48;100957.52;;;31.82;31.46
50682;BME280;36779;52.168;20.878;2023-07-09T10:39:25;100959.59;;;31.84;31.39
50682;BME280;36779;52.168;20.878;2023-07-09T10:42:00;100963.77;;;31.95;31.33
50682;BME280;36779;52.168;20.878;2023-07-09T10:44:34;100964.48;;;31.86;30.97
50682;BME280;36779;52.168;20.878;2023-07-09T10:47:09;100954.63;;;31.86;31.13
50682;BME280;36779;52.168;20.878;2023-07-09T10:49:44;100953.70;;;31.97;31.03
50682;BME280;36779;52.168;20.878;2023-07-09T10:52:23;100947.94;;;32.00;30.92
50682;BME280;36779;52.168;20.878;2023-07-09T10:54:59;100945.45;;;32.01;30.67
50682;BME280;36779;52.168;20.878;2023-07-09T10:57:38;100945.39;;;32.11;30.67
50682;BME280;36779;52.168;20.878;2023-07-09T11:00:17;100940.88;;;32.30;30.72
50682;BME280;36779;52.168;20.878;2023-07-09T11:02:58;100941.49;;;32.38;30.46
50682;BME280;36779;52.168;20.878;2023-07-09T11:05:29;100944.67;;;32.34;30.26
50682;BME280;36779;52.168;20.878;2023-07-09T11:08:02;100943.95;;;32.49;30.33
50682;BME280;36779;52.168;20.878;2023-07-09T11:10:37;100940.12;;;32.69;30.30
50682;BME280;36779;52.168;20.878;2023-07-09T11:13:13;100937.59;;;32.76;30.05
50682;BME280;36779;52.168;20.878;2023-07-09T11:15:46;100933.83;;;32.81;30.10
50682;BME280;36779;52.168;20.878;2023-07-09T11:18:21;100933.89;;;32.88;29.71
50682;BME280;36779;52.168;20.878;2023-07-09T11:20:59;100935.40;;;32.87;29.60
50682;BME280;36779;52.168;20.878;2023-07-09T11:23:46;100944.52;;;32.77;29.52
50682;BME280;36779;52.168;20.878;2023-07-09T11:26:23;100944.67;;;32.59;29.38
50682;BME280;36779;52.168;20.878;2023-07-09T11:29:06;100939.33;;;32.67;29.59
50682;BME280;36779;52.168;20.878;2023-07-09T11:31:44;100938.90;;;32.89;29.30
50682;BME280;36779;52.168;20.878;2023-07-09T11:34:20;100932.98;;;32.89;29.37
50682;BME280;36779;52.168;20.878;2023-07-09T11:36:59;100935.67;;;32.90;29.23
50682;BME280;36779;52.168;20.878;2023-07-09T11:39:30;100938.98;;;32.76;28.95
50682;BME280;36779;52.168;20.878;2023-07-09T11:44:47;100933.30;;;32.64;28.74
50682;BME280;36779;52.168;20.878;2023-07-09T11:47:21;100936.47;;;32.53;28.65
50682;BME280;36779;52.168;20.878;2023-07-09T11:49:55;100935.45;;;32.54;28.59
50682;BME280;36779;52.168;20.878;2023-07-09T11:52:30;100942.59;;;32.50;28.50
50682;BME280;36779;52.168;20.878;2023-07-09T11:55:05;100936.75;;;32.45;28.50
50682;BME280;36779;52.168;20.878;2023-07-09T11:57:48;100934.89;;;32.43;28.35
50682;BME280;36779;52.168;20.878;2023-07-09T12:00:18;100930.50;;;32.35;28.15
50682;BME280;36779;52.168;20.878;2023-07-09T12:02:47;100925.48;;;32.39;28.33
50682;BME280;36779;52.168;20.878;2023-07-09T12:05:20;100923.25;;;32.59;28.38
50682;BME280;36779;52.168;20.878;2023-07-09T12:07:49;100923.05;;;32.75;28.08
50682;BME280;36779;52.168;20.878;2023-07-09T12:10:22;100920.13;;;32.70;27.97
50682;BME280;36779;52.168;20.878;2023-07-09T12:12:55;100918.34;;;32.55;27.80
50682;BME280;36779;52.168;20.878;2023-07-09T12:15:25;100917.05;;;32.33;27.64
50682;BME280;36779;52.168;20.878;2023-07-09T12:17:57;100915.46;;;32.32;27.76
50682;BME280;36779;52.168;20.878;2023-07-09T12:20:30;100916.08;;;32.18;27.54
50682;BME280;36779;52.168;20.878;2023-07-09T12:23:00;100913.01;;;32.11;27.46
50682;BME280;36779;52.168;20.878;2023-07-09T12:25:33;100910.87;;;32.06;27.52
50682;BME280;36779;52.168;20.878;2023-07-09T12:28:02;100913.96;;;32.00;27.38
50682;BME280;36779;52.168;20.878;2023-07-09T12:30:34;100906.33;;;31.99;27.46
50682;BME280;36779;52.168;20.878;2023-07-09T12:33:07;100904.60;;;32.05;27.55
50682;BME280;36779;52.168;20.878;2023-07-09T12:35:36;100900.96;;;32.14;27.60
50682;BME280;36779;52.168;20.878;2023-07-09T12:38:18;100902.03;;;32.16;27.47
50682;BME280;36779;52.168;20.878;2023-07-09T12:40:51;100906.07;;;32.02;27.12
50682;BME280;36779;52.168;20.878;2023-07-09T12:43:24;100906.68;;;31.77;27.19
50682;BME280;36779;52.168;20.878;2023-07-09T12:45:57;100900.83;;;31.74;27.03
50682;BME280;36779;52.168;20.878;2023-07-09T12:48:29;100901.64;;;31.64;27.04
50682;BME280;36779;52.168;20.878;2023-07-09T12:50:59;100898.80;;;31.68;27.21
50682;BME280;36779;52.168;20.878;2023-07-09T12:53:29;100899.23;;;31.68;27.19
50682;BME280;36779;52.168;20.878;2023-07-09T12:55:59;100897.44;;;31.54;26.93
50682;BME280;36779;52.168;20.878;2023-07-09T12:58:32;100900.13;;;31.37;26.96
50682;BME280;36779;52.168;20.878;2023-07-09T13:01:07;100903.79;;;31.17;26.87
50682;BME280;36779;52.168;20.878;2023-07-09T13:03:36;100899.58;;;31.13;27.04
50682;BME280;36779;52.168;20.878;2023-07-09T13:06:28;100898.29;;;31.25;27.13
50682;BME280;36779;52.168;20.878;2023-07-09T13:09:11;100893.36;;;31.26;27.04